createdAt,value
2022-09-11T00:00:37.277Z,74.45
2022-09-11T00:02:39.870Z,74.45
2022-09-11T00:04:43.798Z,74.88
2022-09-11T00:06:46.424Z,74.60
2022-09-11T00:08:49.475Z,73.97
2022-09-11T00:10:52.121Z,73.81
2022-09-11T00:12:58.149Z,72.69
2022-09-11T00:15:00.808Z,73.15
2022-09-11T00:17:03.443Z,73.76
2022-09-11T00:19:08.312Z,74.13
2022-09-11T00:21:12.167Z,74.29
2022-09-11T00:23:17.541Z,74.29
2022-09-11T00:25:20.146Z,73.31
2022-09-11T00:27:22.810Z,71.57
2022-09-11T00:29:25.337Z,72.05
2022-09-11T00:31:29.865Z,73.50
2022-09-11T00:33:33.400Z,73.36
2022-09-11T00:35:36.007Z,73.63
2022-09-11T00:37:39.928Z,73.28
2022-09-11T00:39:42.977Z,71.96
2022-09-11T00:41:46.173Z,72.60
2022-09-11T00:43:55.248Z,73.40
2022-09-11T00:46:00.949Z,73.41
2022-09-11T00:48:05.259Z,73.27
2022-09-11T00:50:13.289Z,72.86
2022-09-11T00:52:19.189Z,73.68
2022-09-11T00:54:27.902Z,73.71
2022-09-11T00:56:33.114Z,73.59
2022-09-11T00:58:40.487Z,73.81
2022-09-11T01:00:45.328Z,73.62
2022-09-11T01:02:50.432Z,73.39
2022-09-11T01:04:53.430Z,72.20
2022-09-11T01:06:58.267Z,72.19
2022-09-11T01:09:01.243Z,72.78
2022-09-11T01:11:20.577Z,73.33
2022-09-11T01:13:33.022Z,73.90
2022-09-11T01:15:42.055Z,73.88
2022-09-11T01:17:53.939Z,72.42
2022-09-11T01:20:36.536Z,73.63
2022-09-11T01:22:58.327Z,73.16
2022-09-11T01:25:10.561Z,72.87
2022-09-11T01:27:39.709Z,72.61
2022-09-11T01:29:51.507Z,72.08
2022-09-11T01:31:57.494Z,71.36
2022-09-11T01:34:05.891Z,71.88
2022-09-11T01:36:11.797Z,71.94
2022-09-11T01:38:19.260Z,71.86
2022-09-11T01:40:27.143Z,71.47
2022-09-11T01:42:35.874Z,72.34
2022-09-11T01:44:42.529Z,73.12
2022-09-11T01:46:49.776Z,73.69
2022-09-11T01:48:58.304Z,72.28
2022-09-11T01:51:03.435Z,70.58
2022-09-11T01:53:09.673Z,71.22
2022-09-11T01:55:19.029Z,72.71
2022-09-11T01:57:26.452Z,72.83
2022-09-11T01:59:37.408Z,71.74
2022-09-11T02:01:47.604Z,73.12
2022-09-11T02:03:54.387Z,73.99
2022-09-11T02:06:01.336Z,72.35
2022-09-11T02:08:09.347Z,72.96
2022-09-11T02:10:17.494Z,72.79
2022-09-11T02:12:25.219Z,73.41
2022-09-11T02:14:36.552Z,72.42
2022-09-11T02:16:47.720Z,72.97
2022-09-11T02:18:59.847Z,71.85
2022-09-11T02:21:02.411Z,73.02
2022-09-11T02:23:07.031Z,73.00
2022-09-11T02:25:13.738Z,72.40
2022-09-11T02:27:19.870Z,71.83
2022-09-11T02:29:24.376Z,72.48
2022-09-11T02:31:28.769Z,72.35
2022-09-11T02:33:33.426Z,72.09
2022-09-11T02:35:45.303Z,73.01
2022-09-11T02:37:50.622Z,71.71
2022-09-11T02:40:41.615Z,72.13
2022-09-11T02:42:57.201Z,71.20
2022-09-11T02:45:10.828Z,72.54
2022-09-11T02:47:25.355Z,72.45
2022-09-11T02:49:40.561Z,73.52
2022-09-11T02:51:55.890Z,73.00
2022-09-11T02:54:06.935Z,74.21
2022-09-11T02:56:16.280Z,73.70
2022-09-11T02:58:23.446Z,72.99
2022-09-11T03:00:26.223Z,72.71
2022-09-11T03:02:31.634Z,72.74
2022-09-11T03:04:34.986Z,74.04
2022-09-11T03:06:37.554Z,72.31
2022-09-11T03:08:40.998Z,72.68
2022-09-11T03:10:46.638Z,73.07
2022-09-11T03:12:49.164Z,72.87
2022-09-11T03:14:51.988Z,73.80
2022-09-11T03:16:56.022Z,74.46
2022-09-11T03:18:59.925Z,74.42
2022-09-11T03:21:03.649Z,74.42
2022-09-11T03:23:10.952Z,75.66
2022-09-11T03:25:15.056Z,75.77
2022-09-11T03:27:18.167Z,76.62
2022-09-11T03:29:20.721Z,77.13
2022-09-11T03:31:23.338Z,77.02
2022-09-11T03:33:26.068Z,77.04
2022-09-11T03:35:29.985Z,76.87
2022-09-11T03:37:32.563Z,76.98
2022-09-11T03:39:35.243Z,76.17
2022-09-11T03:41:37.924Z,77.20
2022-09-11T03:43:40.564Z,77.33
2022-09-11T03:45:44.568Z,77.79
2022-09-11T03:47:47.177Z,78.75
2022-09-11T03:49:49.753Z,78.41
2022-09-11T03:51:53.629Z,77.92
2022-09-11T03:53:56.137Z,79.17
2022-09-11T03:55:58.651Z,78.37
2022-09-11T03:58:01.291Z,77.51
2022-09-11T04:00:06.444Z,77.94
2022-09-11T04:02:09.130Z,78.98
2022-09-11T04:04:11.744Z,78.76
2022-09-11T04:06:14.279Z,79.60
2022-09-11T04:08:18.182Z,79.84
2022-09-11T04:10:21.197Z,79.67
2022-09-11T04:12:23.819Z,79.74
2022-09-11T04:14:26.425Z,79.71
2022-09-11T04:16:32.700Z,79.87
2022-09-11T04:18:38.176Z,79.84
2022-09-11T04:20:40.700Z,79.06
2022-09-11T04:22:43.277Z,79.14
2022-09-11T04:24:47.153Z,79.64
2022-09-11T04:26:49.976Z,79.25
2022-09-11T04:28:52.586Z,78.69
2022-09-11T04:30:57.081Z,79.58
2022-09-11T04:32:59.693Z,78.91
2022-09-11T04:35:03.538Z,79.03
2022-09-11T04:37:06.071Z,79.40
2022-09-11T04:39:08.581Z,79.42
2022-09-11T04:41:12.782Z,79.80
2022-09-11T04:43:17.689Z,79.71
2022-09-11T04:45:20.206Z,79.72
2022-09-11T04:47:22.737Z,79.73
2022-09-11T04:49:25.409Z,80.02
2022-09-11T04:51:30.197Z,80.31
2022-09-11T04:53:32.991Z,80.20
2022-09-11T04:55:35.715Z,79.91
2022-09-11T04:57:39.684Z,79.39
2022-09-11T04:59:42.289Z,78.83
2022-09-11T05:01:46.371Z,79.93
2022-09-11T05:03:49.377Z,80.04
2022-09-11T05:05:51.896Z,79.05
2022-09-11T05:07:54.389Z,79.50
2022-09-11T05:09:56.894Z,79.39
2022-09-11T05:11:59.453Z,79.23
2022-09-11T05:14:03.919Z,79.51
2022-09-11T05:16:09.116Z,79.83
2022-09-11T05:18:12.443Z,79.43
2022-09-11T05:20:16.595Z,79.65
2022-09-11T05:22:19.189Z,79.38
2022-09-11T05:24:21.752Z,80.30
2022-09-11T05:26:25.955Z,79.01
2022-09-11T05:28:29.359Z,79.68
2022-09-11T05:30:33.286Z,80.26
2022-09-11T05:32:35.814Z,78.97
2022-09-11T05:34:38.344Z,79.31
2022-09-11T05:36:41.449Z,79.58
2022-09-11T05:38:44.335Z,79.82
2022-09-11T05:40:48.294Z,79.10
2022-09-11T05:42:50.860Z,79.70
2022-09-11T05:44:53.380Z,79.94
2022-09-11T05:46:58.075Z,79.19
2022-09-11T05:49:00.628Z,79.63
2022-09-11T05:51:06.947Z,80.40
2022-09-11T05:53:09.610Z,80.69
2022-09-11T05:55:12.138Z,80.75
2022-09-11T05:57:14.701Z,80.68
2022-09-11T05:59:17.465Z,80.48
2022-09-11T06:01:21.432Z,80.55
2022-09-11T06:03:26.401Z,80.63
2022-09-11T06:05:29.082Z,80.73
2022-09-11T06:07:31.618Z,80.93
2022-09-11T06:09:34.331Z,80.85
2022-09-11T06:11:37.298Z,80.60
2022-09-11T06:13:41.894Z,80.51
2022-09-11T06:15:47.163Z,79.18
2022-09-11T06:17:50.232Z,77.96
2022-09-11T06:19:54.447Z,79.09
2022-09-11T06:21:57.403Z,80.00
2022-09-11T06:23:59.943Z,79.16
2022-09-11T06:26:06.537Z,79.72
2022-09-11T06:28:09.105Z,79.82
2022-09-11T06:30:13.353Z,80.48
2022-09-11T06:32:16.046Z,80.52
2022-09-11T06:34:19.725Z,79.63
2022-09-11T06:36:26.717Z,77.95
2022-09-11T06:38:29.668Z,79.34
2022-09-11T06:40:32.198Z,79.64
2022-09-11T06:42:34.793Z,78.90
2022-09-11T06:44:37.424Z,79.61
2022-09-11T06:46:40.511Z,80.05
2022-09-11T06:48:45.181Z,79.89
2022-09-11T06:50:47.710Z,78.40
2022-09-11T06:52:52.340Z,78.80
2022-09-11T06:54:54.972Z,79.99
2022-09-11T06:56:57.545Z,79.77
2022-09-11T06:59:00.210Z,80.26
2022-09-11T07:01:04.615Z,79.42
2022-09-11T07:03:07.367Z,79.13
2022-09-11T07:05:10.944Z,76.72
2022-09-11T07:07:13.461Z,76.54
2022-09-11T07:09:17.484Z,78.13
2022-09-11T07:11:20.883Z,78.68
2022-09-11T07:13:24.615Z,77.80
2022-09-11T07:15:27.174Z,79.16
2022-09-11T07:17:29.780Z,79.84
2022-09-11T07:19:33.560Z,79.86
2022-09-11T07:21:37.199Z,79.61
2022-09-11T07:23:41.037Z,78.57
2022-09-11T07:25:45.707Z,78.49
2022-09-11T07:27:48.246Z,78.89
2022-09-11T07:29:50.785Z,79.50
2022-09-11T07:31:55.805Z,80.01
2022-09-11T07:33:58.457Z,79.70
2022-09-11T07:36:00.944Z,79.96
2022-09-11T07:38:04.020Z,78.91
2022-09-11T07:40:07.339Z,78.95
2022-09-11T07:42:12.019Z,78.88
2022-09-11T07:44:15.263Z,78.06
2022-09-11T07:46:18.053Z,77.49
2022-09-11T07:48:20.614Z,76.89
2022-09-11T07:50:24.293Z,76.49
2022-09-11T07:52:26.928Z,77.40
2022-09-11T07:54:30.090Z,77.92
2022-09-11T07:56:34.642Z,77.53
2022-09-11T07:58:40.465Z,77.66
2022-09-11T08:00:43.035Z,78.12
2022-09-11T08:02:45.637Z,77.61
2022-09-11T08:04:48.282Z,77.48
2022-09-11T08:06:50.822Z,78.14
2022-09-11T08:08:54.445Z,78.23
2022-09-11T08:10:57.148Z,77.91
2022-09-11T08:13:00.485Z,77.58
2022-09-11T08:15:04.731Z,77.48
2022-09-11T08:17:07.354Z,77.24
2022-09-11T08:19:18.048Z,77.05
2022-09-11T08:21:21.407Z,76.16
2022-09-11T08:23:23.903Z,76.08
2022-09-11T08:25:28.643Z,75.46
2022-09-11T08:27:32.164Z,75.50
2022-09-11T08:29:34.698Z,76.27
2022-09-11T08:31:38.620Z,76.47
2022-09-11T08:33:41.245Z,76.25
2022-09-11T08:35:45.339Z,77.07
2022-09-11T08:37:51.595Z,76.75
2022-09-11T08:39:56.984Z,77.31
2022-09-11T08:42:03.753Z,77.18
2022-09-11T08:44:14.172Z,77.54
2022-09-11T08:46:17.039Z,77.58
2022-09-11T08:48:30.172Z,76.40
2022-09-11T08:50:36.896Z,75.72
2022-09-11T08:52:41.349Z,75.73
2022-09-11T08:54:47.505Z,75.11
2022-09-11T08:56:52.127Z,75.86
2022-09-11T08:59:13.414Z,75.01
2022-09-11T09:01:27.585Z,74.68
2022-09-11T09:03:53.679Z,74.19
2022-09-11T09:06:00.691Z,74.20
2022-09-11T09:08:21.414Z,74.68
2022-09-11T09:10:37.987Z,74.58
2022-09-11T09:12:48.597Z,74.25
2022-09-11T09:15:10.114Z,74.53
2022-09-11T09:17:16.906Z,74.13
2022-09-11T09:19:26.514Z,73.59
2022-09-11T09:21:35.989Z,74.05
2022-09-11T09:23:44.352Z,73.72
2022-09-11T09:25:49.084Z,73.06
2022-09-11T09:27:56.783Z,72.07
2022-09-11T09:30:05.742Z,71.79
2022-09-11T09:32:15.099Z,71.36
2022-09-11T09:34:20.433Z,71.54
2022-09-11T09:36:31.283Z,72.01
2022-09-11T09:38:33.840Z,71.41
2022-09-11T09:40:38.622Z,71.13
2022-09-11T09:42:59.739Z,70.83
2022-09-11T09:45:36.928Z,71.95
2022-09-11T09:47:44.491Z,73.25
2022-09-11T09:49:47.925Z,73.48
2022-09-11T09:51:55.053Z,72.46
2022-09-11T09:54:02.082Z,73.62
2022-09-11T09:56:06.271Z,73.55
2022-09-11T09:58:08.791Z,73.10
2022-09-11T10:00:17.260Z,72.09
2022-09-11T10:02:39.030Z,73.30
2022-09-11T10:04:41.675Z,73.84
2022-09-11T10:06:45.951Z,73.70
2022-09-11T10:08:49.875Z,73.08
2022-09-11T10:10:58.167Z,73.35
2022-09-11T10:13:18.630Z,73.80
2022-09-11T10:15:23.837Z,71.81
2022-09-11T10:17:33.267Z,71.72
2022-09-11T10:19:39.293Z,71.92
2022-09-11T10:21:41.843Z,70.88
2022-09-11T10:23:47.491Z,70.95
2022-09-11T10:25:51.963Z,70.27
2022-09-11T10:28:03.970Z,70.14
2022-09-11T10:30:07.587Z,70.41
2022-09-11T10:32:18.682Z,69.87
2022-09-11T10:34:24.671Z,70.16
2022-09-11T10:36:28.873Z,69.61
2022-09-11T10:38:37.016Z,69.61
2022-09-11T10:40:47.268Z,68.96
2022-09-11T10:42:54.367Z,68.80
2022-09-11T10:45:08.558Z,69.14
2022-09-11T10:47:17.819Z,69.33
2022-09-11T10:49:21.784Z,68.70
2022-09-11T10:51:26.039Z,69.26
2022-09-11T10:53:29.300Z,69.03
2022-09-11T10:55:35.844Z,68.31
2022-09-11T10:57:45.978Z,68.42
2022-09-11T11:00:04.161Z,69.01
2022-09-11T11:02:20.429Z,70.68
2022-09-11T11:04:23.580Z,70.55
2022-09-11T11:06:42.589Z,67.88
2022-09-11T11:09:16.321Z,66.77
2022-09-11T11:11:32.435Z,67.80
2022-09-11T11:13:47.890Z,68.30
2022-09-11T11:16:07.862Z,66.67
2022-09-11T11:18:23.574Z,67.81
2022-09-11T11:20:34.708Z,65.52
2022-09-11T11:22:56.129Z,65.27
2022-09-11T11:25:09.358Z,65.19
2022-09-11T11:27:37.822Z,64.55
2022-09-11T11:30:04.602Z,64.42
2022-09-11T11:32:19.789Z,64.87
2022-09-11T11:34:48.275Z,65.38
2022-09-11T11:36:55.944Z,65.17
2022-09-11T11:39:01.978Z,62.90
2022-09-11T11:41:10.113Z,62.40
2022-09-11T11:43:17.363Z,62.97
2022-09-11T11:45:24.653Z,64.11
2022-09-11T11:47:33.551Z,64.06
2022-09-11T11:49:48.958Z,62.12
2022-09-11T11:51:57.144Z,61.78
2022-09-11T11:54:05.116Z,61.19
2022-09-11T11:56:14.850Z,61.39
2022-09-11T11:58:28.018Z,60.37
2022-09-11T12:00:33.875Z,61.06
2022-09-11T12:02:46.219Z,61.48
2022-09-11T12:04:54.850Z,61.54
2022-09-11T12:06:57.618Z,61.43
2022-09-11T12:09:09.845Z,60.30
2022-09-11T12:11:15.467Z,61.03
2022-09-11T12:13:20.612Z,61.40
2022-09-11T12:15:25.153Z,62.33
2022-09-11T12:17:29.777Z,61.87
2022-09-11T12:19:33.775Z,62.36
2022-09-11T12:21:41.423Z,62.87
2022-09-11T12:24:15.530Z,62.34
2022-09-11T12:26:20.117Z,62.18
2022-09-11T12:28:26.178Z,62.87
2022-09-11T12:30:30.767Z,62.67
2022-09-11T12:32:46.944Z,63.01
2022-09-11T12:35:04.771Z,60.91
2022-09-11T12:37:13.391Z,61.78
2022-09-11T12:39:24.026Z,62.16
2022-09-11T12:41:30.098Z,61.78
2022-09-11T12:43:48.739Z,61.59
2022-09-11T12:45:51.743Z,61.34
2022-09-11T12:47:54.474Z,61.83
2022-09-11T12:50:06.700Z,62.20
2022-09-11T12:52:25.851Z,62.70
2022-09-11T12:54:31.784Z,63.15
2022-09-11T12:56:36.019Z,59.82
2022-09-11T12:58:41.997Z,59.07
2022-09-11T13:00:47.585Z,59.39
2022-09-11T13:02:55.260Z,59.46
2022-09-11T13:04:58.947Z,59.25
2022-09-11T13:07:05.538Z,59.96
2022-09-11T13:09:19.778Z,60.78
2022-09-11T13:11:43.355Z,58.04
2022-09-11T13:13:46.893Z,58.10
2022-09-11T13:15:52.352Z,58.86
2022-09-11T13:17:55.069Z,59.61
2022-09-11T13:20:22.456Z,60.60
2022-09-11T13:22:27.521Z,60.83
2022-09-11T13:24:34.137Z,61.91
2022-09-11T13:26:36.701Z,63.04
2022-09-11T13:28:46.171Z,62.90
2022-09-11T13:30:56.630Z,62.09
2022-09-11T13:33:06.435Z,62.30
2022-09-11T13:35:16.305Z,62.31
2022-09-11T13:37:32.864Z,62.71
2022-09-11T13:39:40.998Z,63.30
2022-09-11T13:41:44.718Z,62.64
2022-09-11T13:43:51.662Z,61.15
2022-09-11T13:46:24.842Z,61.19
2022-09-11T13:48:27.370Z,60.75
2022-09-11T13:50:29.937Z,59.52
2022-09-11T13:52:35.183Z,58.41
2022-09-11T13:54:44.237Z,57.49
2022-09-11T13:57:06.467Z,57.52
2022-09-11T13:59:38.199Z,56.88
2022-09-11T14:01:53.890Z,57.02
2022-09-11T14:03:57.123Z,57.57
2022-09-11T14:06:01.355Z,56.51
2022-09-11T14:08:07.567Z,56.49
2022-09-11T14:10:22.014Z,57.10
2022-09-11T14:12:25.038Z,57.17
2022-09-11T14:14:29.908Z,55.38
2022-09-11T14:16:35.497Z,54.69
2022-09-11T14:18:43.461Z,53.12
2022-09-11T14:20:49.286Z,51.60
2022-09-11T14:22:56.510Z,51.60
2022-09-11T14:25:05.687Z,51.73
2022-09-11T14:27:37.713Z,50.87
2022-09-11T14:29:40.958Z,49.40
2022-09-11T14:31:44.543Z,49.81
2022-09-11T14:33:47.047Z,48.97
2022-09-11T14:35:50.243Z,50.05
2022-09-11T14:37:52.856Z,49.48
2022-09-11T14:39:59.013Z,49.32
2022-09-11T14:42:05.095Z,47.40
2022-09-11T14:44:13.145Z,47.82
2022-09-11T14:46:16.096Z,46.99
2022-09-11T14:48:18.790Z,46.51
2022-09-11T14:50:21.781Z,45.97
2022-09-11T14:52:27.001Z,45.85
2022-09-11T14:54:31.681Z,46.45
2022-09-11T14:56:34.421Z,46.67
2022-09-11T14:58:36.965Z,47.06
2022-09-11T15:00:41.008Z,47.91
2022-09-11T15:02:43.588Z,45.90
2022-09-11T15:04:46.903Z,47.44
2022-09-11T15:06:51.420Z,47.24
2022-09-11T15:08:53.931Z,48.10
2022-09-11T15:10:56.473Z,45.40
2022-09-11T15:13:02.826Z,46.59
2022-09-11T15:15:06.256Z,46.62
2022-09-11T15:17:12.637Z,48.00
2022-09-11T15:19:15.899Z,44.97
2022-09-11T15:21:18.418Z,46.40
2022-09-11T15:23:20.982Z,45.90
2022-09-11T15:25:24.381Z,47.38
2022-09-11T15:27:26.995Z,45.82
2022-09-11T15:29:31.451Z,46.50
2022-09-11T15:31:34.400Z,45.46
2022-09-11T15:33:38.346Z,46.70
2022-09-11T15:35:40.880Z,47.56
2022-09-11T15:37:45.570Z,47.67
2022-09-11T15:39:48.135Z,48.24
2022-09-11T15:41:51.139Z,48.38
2022-09-11T15:43:53.720Z,49.58
2022-09-11T15:45:57.258Z,49.68
2022-09-11T15:48:00.217Z,49.70
2022-09-11T15:50:05.584Z,50.17
2022-09-11T15:52:08.165Z,50.33
2022-09-11T15:54:10.998Z,50.69
2022-09-11T15:56:16.265Z,50.80
2022-09-11T15:58:18.772Z,50.93
2022-09-11T16:00:21.979Z,51.24
2022-09-11T16:02:24.714Z,51.37
2022-09-11T16:04:31.589Z,52.18
2022-09-11T16:06:38.912Z,52.39
2022-09-11T16:08:41.425Z,52.53
2022-09-11T16:10:43.989Z,52.88
2022-09-11T16:12:47.012Z,52.92
2022-09-11T16:14:50.267Z,53.23
2022-09-11T16:16:54.391Z,53.94
2022-09-11T16:18:58.511Z,54.12
2022-09-11T16:21:01.345Z,54.25
2022-09-11T16:23:05.403Z,54.59
2022-09-11T16:25:08.580Z,54.96
2022-09-11T16:27:11.839Z,54.95
2022-09-11T16:29:17.929Z,54.66
2022-09-11T16:31:21.023Z,54.90
2022-09-11T16:33:24.215Z,54.68
2022-09-11T16:35:27.254Z,54.83
2022-09-11T16:37:33.944Z,54.94
2022-09-11T16:39:37.856Z,56.16
2022-09-11T16:41:40.967Z,57.05
2022-09-11T16:43:45.864Z,57.57
2022-09-11T16:45:51.357Z,57.91
2022-09-11T16:47:53.900Z,57.62
2022-09-11T16:50:12.095Z,57.03
2022-09-11T16:52:15.213Z,57.52
2022-09-11T16:54:17.987Z,57.73
2022-09-11T16:56:23.543Z,57.81
2022-09-11T16:58:26.093Z,57.38
2022-09-11T17:00:28.936Z,57.57
2022-09-11T17:02:31.488Z,58.01
2022-09-11T17:04:34.267Z,58.41
2022-09-11T17:06:36.810Z,58.82
2022-09-11T17:08:39.966Z,58.67
2022-09-11T17:10:44.821Z,59.23
2022-09-11T17:12:52.833Z,59.52
2022-09-11T17:14:58.057Z,59.59
2022-09-11T17:17:00.632Z,60.04
2022-09-11T17:19:03.245Z,59.29
2022-09-11T17:21:07.815Z,59.44
2022-09-11T17:23:11.121Z,59.56
2022-09-11T17:25:16.133Z,59.75
2022-09-11T17:27:18.688Z,60.62
2022-09-11T17:29:22.535Z,61.18
2022-09-11T17:31:25.129Z,60.92
2022-09-11T17:33:27.761Z,61.66
2022-09-11T17:35:31.684Z,62.01
2022-09-11T17:37:34.390Z,61.99
2022-09-11T17:39:37.218Z,62.52
2022-09-11T17:41:39.783Z,62.38
2022-09-11T17:43:42.400Z,62.61
2022-09-11T17:45:46.535Z,62.58
2022-09-11T17:47:49.025Z,62.38
2022-09-11T17:49:51.680Z,62.31
2022-09-11T17:51:54.507Z,62.66
2022-09-11T17:53:59.149Z,62.69
2022-09-11T17:56:02.301Z,62.49
2022-09-11T17:58:04.887Z,62.71
2022-09-11T18:00:08.570Z,63.15
2022-09-11T18:02:14.851Z,62.57
2022-09-11T18:04:18.280Z,63.30
2022-09-11T18:06:28.324Z,63.62
2022-09-11T18:08:34.498Z,63.72
2022-09-11T18:10:37.093Z,64.24
2022-09-11T18:12:39.642Z,64.39
2022-09-11T18:14:43.796Z,63.82
2022-09-11T18:16:47.708Z,64.23
2022-09-11T18:18:51.784Z,64.61
2022-09-11T18:20:55.429Z,64.88
2022-09-11T18:22:59.643Z,65.09
2022-09-11T18:25:02.306Z,65.38
2022-09-11T18:27:06.646Z,65.19
2022-09-11T18:29:11.737Z,65.14
2022-09-11T18:31:14.356Z,65.47
2022-09-11T18:33:17.443Z,65.59
2022-09-11T18:35:21.363Z,66.06
2022-09-11T18:37:23.892Z,66.08
2022-09-11T18:39:26.653Z,66.18
2022-09-11T18:41:31.254Z,66.45
2022-09-11T18:43:33.750Z,66.51
2022-09-11T18:45:36.767Z,66.90
2022-09-11T18:47:39.882Z,67.10
2022-09-11T18:49:42.515Z,67.10
2022-09-11T18:51:46.556Z,67.14
2022-09-11T18:53:52.032Z,66.87
2022-09-11T18:56:01.756Z,67.05
2022-09-11T18:58:05.594Z,66.95
2022-09-11T19:00:13.745Z,67.09
2022-09-11T19:02:16.275Z,67.34
2022-09-11T19:04:20.224Z,67.21
2022-09-11T19:06:25.032Z,67.19
2022-09-11T19:08:28.984Z,67.23
2022-09-11T19:10:31.785Z,67.30
2022-09-11T19:12:34.414Z,67.34
2022-09-11T19:14:37.767Z,67.16
2022-09-11T19:16:41.192Z,66.94
2022-09-11T19:18:43.741Z,66.97
2022-09-11T19:20:46.276Z,66.74
2022-09-11T19:22:49.239Z,67.06
2022-09-11T19:24:53.296Z,67.38
2022-09-11T19:26:56.517Z,67.12
2022-09-11T19:29:00.490Z,67.56
2022-09-11T19:31:03.688Z,67.47
2022-09-11T19:33:07.779Z,67.71
2022-09-11T19:35:10.385Z,67.38
2022-09-11T19:37:13.794Z,67.65
2022-09-11T19:39:16.477Z,67.96
2022-09-11T19:41:23.089Z,67.80
2022-09-11T19:43:25.885Z,67.91
2022-09-11T19:45:28.818Z,67.67
2022-09-11T19:47:31.483Z,68.04
2022-09-11T19:49:34.044Z,68.25
2022-09-11T19:51:38.499Z,68.32
2022-09-11T19:53:42.165Z,68.10
2022-09-11T19:55:44.951Z,67.91
2022-09-11T19:57:48.790Z,68.44
2022-09-11T19:59:51.837Z,68.19
2022-09-11T20:01:54.416Z,68.15
2022-09-11T20:03:58.174Z,68.10
2022-09-11T20:06:00.881Z,68.16
2022-09-11T20:08:04.005Z,68.15
2022-09-11T20:10:09.783Z,67.82
2022-09-11T20:12:12.377Z,67.83
2022-09-11T20:14:16.503Z,68.14
2022-09-11T20:16:23.005Z,67.80
2022-09-11T20:18:26.125Z,67.95
2022-09-11T20:20:29.286Z,67.65
2022-09-11T20:22:31.851Z,67.92
2022-09-11T20:24:34.399Z,68.38
2022-09-11T20:26:37.316Z,68.22
2022-09-11T20:28:40.188Z,68.09
2022-09-11T20:30:44.181Z,67.99
2022-09-11T20:32:46.999Z,68.20
2022-09-11T20:34:49.751Z,68.01
2022-09-11T20:36:52.364Z,68.15
2022-09-11T20:38:56.499Z,68.59
2022-09-11T20:41:00.607Z,68.33
2022-09-11T20:43:03.229Z,68.19
2022-09-11T20:45:06.692Z,68.35
2022-09-11T20:47:13.311Z,67.96
2022-09-11T20:49:16.192Z,67.77
2022-09-11T20:51:18.789Z,67.88
2022-09-11T20:53:22.957Z,67.75
2022-09-11T20:55:25.517Z,67.74
2022-09-11T20:57:28.036Z,67.65
2022-09-11T20:59:30.699Z,67.62
2022-09-11T21:01:33.440Z,68.20
2022-09-11T21:03:37.392Z,67.93
2022-09-11T21:05:40.295Z,67.93
2022-09-11T21:07:42.977Z,68.20
2022-09-11T21:09:46.176Z,68.12
2022-09-11T21:11:48.892Z,68.31
2022-09-11T21:13:51.491Z,68.78
2022-09-11T21:15:54.126Z,68.40
2022-09-11T21:17:56.814Z,68.43
2022-09-11T21:20:00.775Z,68.35
2022-09-11T21:22:03.297Z,67.22
2022-09-11T21:24:07.629Z,67.54
2022-09-11T21:26:11.252Z,68.40
2022-09-11T21:28:13.924Z,68.15
2022-09-11T21:30:16.498Z,69.62
2022-09-11T21:32:19.031Z,70.09
2022-09-11T21:34:21.690Z,70.56
2022-09-11T21:36:26.021Z,70.31
2022-09-11T21:38:29.897Z,70.17
2022-09-11T21:40:32.580Z,69.69
2022-09-11T21:42:35.158Z,70.13
2022-09-11T21:44:37.700Z,70.14
2022-09-11T21:46:40.255Z,70.02
2022-09-11T21:48:43.190Z,70.08
2022-09-11T21:50:45.801Z,70.27
2022-09-11T21:52:49.672Z,69.73
2022-09-11T21:54:54.640Z,69.60
2022-09-11T21:56:57.182Z,69.50
2022-09-11T21:59:03.261Z,69.51
2022-09-11T22:01:08.118Z,69.38
2022-09-11T22:03:12.179Z,69.33
2022-09-11T22:05:14.811Z,69.12
2022-09-11T22:07:17.514Z,69.17
2022-09-11T22:09:21.659Z,68.90
2022-09-11T22:11:25.904Z,68.61
2022-09-11T22:13:28.458Z,68.66
2022-09-11T22:15:31.046Z,68.60
2022-09-11T22:17:33.696Z,68.76
2022-09-11T22:19:36.280Z,68.80
2022-09-11T22:21:39.798Z,68.49
2022-09-11T22:23:42.417Z,68.65
2022-09-11T22:25:47.017Z,68.37
2022-09-11T22:27:49.539Z,68.50
2022-09-11T22:29:54.050Z,68.62
2022-09-11T22:31:56.632Z,68.68
2022-09-11T22:33:59.193Z,68.77
2022-09-11T22:36:08.332Z,68.27
2022-09-11T22:38:10.884Z,67.97
2022-09-11T22:40:13.474Z,68.15
2022-09-11T22:42:17.430Z,68.08
2022-09-11T22:44:20.032Z,68.27
2022-09-11T22:46:23.824Z,67.86
2022-09-11T22:48:26.940Z,68.31
2022-09-11T22:50:29.544Z,68.23
2022-09-11T22:52:32.242Z,68.53
2022-09-11T22:54:34.942Z,67.61
2022-09-11T22:56:37.603Z,67.47
2022-09-11T22:58:41.933Z,68.04
2022-09-11T23:00:45.667Z,68.10
2022-09-11T23:02:48.215Z,68.31
2022-09-11T23:05:04.874Z,68.06
2022-09-11T23:07:16.929Z,68.38
2022-09-11T23:09:19.539Z,68.05
2022-09-11T23:11:22.266Z,67.98
2022-09-11T23:13:24.827Z,67.63
2022-09-11T23:15:28.935Z,67.92
2022-09-11T23:17:31.516Z,68.12
2022-09-11T23:19:35.276Z,68.28
2022-09-11T23:21:37.816Z,68.34
2022-09-11T23:23:42.822Z,68.63
2022-09-11T23:25:45.656Z,68.42
2022-09-11T23:27:48.237Z,68.46
2022-09-11T23:29:50.771Z,68.62
2022-09-11T23:31:59.746Z,68.78
2022-09-11T23:34:04.412Z,68.74
2022-09-11T23:36:07.908Z,68.35
2022-09-11T23:38:10.469Z,67.99
2022-09-11T23:40:13.227Z,68.40
2022-09-11T23:42:15.837Z,68.09
2022-09-11T23:44:18.916Z,67.99
2022-09-11T23:46:21.751Z,67.86
2022-09-11T23:48:25.756Z,67.62
2022-09-11T23:50:28.304Z,67.74
2022-09-11T23:52:30.947Z,68.42
2022-09-11T23:54:33.597Z,68.39
2022-09-11T23:56:36.180Z,68.27
2022-09-11T23:58:40.287Z,68.12
